x

Great Slave Lake (45141) Wave Buoy

2:00pm - Tue 26th Jul 2016 All times are UTC.

  • Sig Wave height 2.0ft
  • Peak Period 15s
  • Wind
    13mph, 16mph gusts
  • Sea Temp 54°f
  • Air Temp 58°f
  • Sea Pressure 1011mb

More Historic Weather Station data

Upgrade to MSW Pro to gain access to the past 30 days of data for over 8000 Wavebouys and Weather Stations around the globe.

Join Pro

Comparision Forecast

View Surf forecast
   
Tue 07/26 2:00pm 2ft 15s 13 16 mph 1011mb 54f 58f
1:00pm 1.6ft 14s 13 16 mph 1011mb 54f 58f
12:00pm  -   -  13
mph
1011.3mb 54f 58f
11:00am 1.6ft 15s 13
mph
1011.3mb 53f 58f
10:00am 1.6ft 4s 13 16 mph 1011.2mb 53f 58f
9:00am 1.6ft 15s 13 16 mph 1011.3mb 53f 58f
8:00am 2ft 15s 13 16 mph 1011.4mb 54f 58f
7:00am 2ft 4s 13 16 mph 1011.6mb 54f 59f
6:00am 1.3ft 14s 13 16 mph 1011.8mb 54f 59f
5:00am 0.7ft 15s 11
mph
1012.2mb 54f 58f
4:00am 1ft 2s 11 13 mph 1012.4mb 54f 60f
3:00am 1ft 3s 9 11 mph 1012.7mb 54f 59f
2:00am 1.3ft 15s 13
mph
1012.6mb 54f 57f
1:00am 1ft 14s 13 16 mph 1012.9mb 55f 57f
12:00am 0.7ft 2s 13 16 mph 1013.2mb 55f 57f
Mon 07/25 11:00pm 0.3ft 2s 11 13 mph 1013.7mb 55f 57f
10:00pm 0.3ft 3s 9 11 mph 1013.9mb 55f 57f
9:00pm 0.7ft 3s 7 9 mph 1014.3mb 56f 56f
8:00pm 1ft 15s 4
mph
1014.6mb 56f 57f
7:00pm 1ft 14s 4
mph
1014.9mb 55f 56f
6:00pm 1.3ft 15s 9
mph
1014.9mb 54f 55f
5:00pm 1.3ft 14s 4 7 mph 1014.8mb 54f 55f
4:00pm 1.3ft 15s 9
mph
1014.7mb 53f 55f
3:00pm 1.6ft 15s 9
mph
1014.4mb 53f 53f
2:00pm 1.6ft 4s 9 11 mph 1014mb 53f 53f
1:00pm 2ft 4s 7 9 mph 1013.6mb 53f 53f
12:00pm 2.5ft 4s 11 13 mph 1013.1mb 53f 53f
11:00am 2.5ft 15s 13
mph
1012.6mb 53f 53f
10:00am 2.5ft 15s 13 18 mph 1012.2mb 52f 54f
9:00am 2.5ft 15s 16 18 mph 1011.4mb 52f 54f
8:00am 2ft 15s 13 18 mph 1011mb 52f 54f
7:00am 1.6ft 15s 13 16 mph 1011mb 52f 55f
6:00am 1.3ft 15s 11 13 mph 1010.8mb 52f 55f
5:00am 1.3ft 15s 9
mph
1010.5mb 53f 54f
4:00am 1.6ft 5s 7 9 mph 1010mb 53f 54f
3:00am 2.5ft 15s 9
mph
1009.5mb 52f 54f
2:00am 2.5ft 5s 9 11 mph 1008.7mb 52f 54f
1:00am  -   -  9
mph
1008mb - 54f
12:00am 3.5ft 5s 11 13 mph 1007.2mb 53f 54f
Sun 07/24 10:00pm 3.5ft 5s 18 22 mph 1005.8mb 53f 54f
9:00pm  -   -  18
mph
- - -
8:00pm 4ft 5s 18 22 mph 1004.4mb 53f 52f
7:00pm 3.5ft 5s 18 22 mph 1003.5mb 53f 52f
6:00pm  -   -  16
mph
1002.8mb - 53f
5:00pm 4ft 5s 16 18 mph 1002mb 53f 53f
4:00pm 4ft 5s 18 20 mph 1001.4mb 53f 53f
3:00pm 3.5ft 4s 16 20 mph 1001.4mb 53f 53f
2:00pm 3ft 4s 20 25 mph 1000.8mb 54f 53f
1:00pm 2ft 14s 20 25 mph 1000.8mb 54f 53f
12:00pm 1.6ft 3s 11 13 mph 1001.8mb 54f 53f
11:00am 1.6ft 15s 13 16 mph 1002.4mb 54f 55f
10:00am 1.3ft 15s 13 16 mph 1002.5mb 55f 55f
9:00am 1.3ft 3s 13
mph
1003.4mb 55f 55f
8:00am 1.3ft 3s 13 16 mph 1004.2mb 55f 56f
7:00am 1.3ft 4s 9
mph
1005.6mb 55f 55f
6:00am 1.3ft 4s 9 11 mph 1006.3mb 55f 55f
5:00am 1.6ft 4s 9 11 mph 1006.7mb 55f 53f
4:00am 1.6ft 4s 13
mph
1007.2mb 55f 53f
3:00am 2ft 4s 9 11 mph 1008mb 54f 53f
2:00am 2ft 4s 7 9 mph 1007.9mb 55f 55f
1:00am 2ft 4s 11 13 mph 1007.9mb 55f 55f
12:00am 2.5ft 4s 9 11 mph 1007.8mb 55f 55f
Sat 07/23 11:00pm 2.5ft 4s 13 16 mph 1007.9mb 54f 55f
10:00pm 2.5ft 15s 11 13 mph 1007.9mb 54f 55f
9:00pm 2.5ft 4s 13 16 mph 1007.6mb 54f 55f
8:00pm 2ft 15s 18 20 mph 1007.1mb 54f 55f
7:00pm  -   -  18
mph
- - 56f
6:00pm 0.7ft 2s 13 16 mph 1007.1mb 54f 56f
5:00pm 0.3ft 3s 11
mph
1007.1mb 54f 55f
4:00pm 0.3ft 2s 7 9 mph 1006.9mb 54f 56f
3:00pm  -  2s 7 9 mph 1006.8mb 55f 56f
2:00pm  -  2s 7 9 mph 1006.7mb 55f 56f
1:00pm  -  2s 9
mph
1006.4mb 54f 56f
12:00pm 0.3ft 2s 7
mph
1006.3mb 54f 56f
11:00am 0.3ft 2s 4
mph
1006.3mb 54f 57f
10:00am 0.3ft 2s 4
mph
1006.3mb 54f 57f
9:00am 0.3ft 2s  -  mph 1006.4mb 54f 56f
8:00am 0.3ft 2s 2 4 mph 1006.1mb 54f 57f
7:00am 0.3ft 2s 2 4 mph 1006mb 54f 56f
6:00am 0.3ft 5s 7
mph
1005.9mb 54f 57f
5:00am 0.3ft 3s 7
mph
1005.6mb 54f 56f
4:00am 0.3ft 3s 4 7 mph 1005.3mb 54f 57f
3:00am 0.3ft 3s 7 9 mph 1004.9mb 55f 56f
2:00am 0.3ft 2s 9
mph
1004.7mb 55f 56f
1:00am 0.3ft 2s 7 9 mph 1004.8mb 56f 55f
12:00am 0.3ft 2s 2 4 mph 1005mb 57f 55f
Fri 07/22 11:00pm 0.7ft 2s 4
mph
1004.6mb 56f 54f
10:00pm 0.7ft 15s 4
mph
1004.8mb 56f 54f
9:00pm 1ft 3s 4 7 mph 1004.8mb 56f 54f
8:00pm 1ft 15s 2 4 mph 1004.9mb 55f 54f
7:00pm 1.6ft 15s 2 4 mph 1005mb 54f 53f
6:00pm 1.6ft 15s 9 11 mph 1005.2mb 54f 53f
5:00pm 1.6ft 4s 13 18 mph 1005.2mb 53f 53f
4:00pm 2.5ft 4s 11 13 mph 1005.8mb 53f 52f